Terminal Aerodrome Forecast
Issued by NWS Cleveland, OH

Home | Current Version | Previous Version | Text Only | Print | Product List | Glossary Off
Versions: 1 2 3 4 5 6 7 8 9 10 11 12 13 14 15 16 17 18 19 20 21 22 23 24 25 26 27 28 29 30 31 32 33 34

000
FTUS41 KCLE 262300
TAFCLE
TAF
KCLE 262338Z 2700/2806 21010KT 5SM -SHRA VCTS OVC025CB
      TEMPO 2700/2702 2SM -TSRA OVC015CB
     FM270300 22005KT 5SM BR OVC025
     FM271500 22008KT P6SM OVC030
     FM271800 22012KT P6SM VCTS OVC035CB
      TEMPO 2719/2723 2SM -TSRA OVC015CB=

USA.gov is the U.S. government's official web portal to all federal, state and local government web resources and services.